aviador You're here:

CYRV Decoded Metar

REVELSTOKE AIRPO in BC, CANADA
Report Time2018-06-24 06:00:00
UTC Time2018-06-24 06:58:37
Flight Rules vfr VFR
WindCalm
Visibility9999 m
Phenomena:N/A
Clouds:N/A
Expected CloudBase > 400 ft AGL from Temp-Dew spread
CeilingNone
Temp16°C (ISA +4)
Dew Point15°C (94% RH)
QNH1017 hPa
Density Alt2,008 ft
Elevation1,453 ft
Report Wrong Elevation
Raw Report
CYRV 240600Z AUTO 00000KT 9SM CLR 16/15 A3002 RMK SLP168 DENSITY
ALT 1700FT=

Extra information for CYRV:More info

Metar Taf Metar & Taf Last 4 Metars F.Rules Stats Wind Profile Meteogram Temp Stats Airport Information Weather charts Add Link Nearby VenuesMetar ALERT Operation Metar Decoded Social comments